Terminal Aerodrome Forecast
Issued by NWS Omaha/Valley, NE

Home | Current Version | Previous Version | Graphics & Text | Print | Product List | Glossary On
Versions: 1 2 3 4 5 6 7 8 9 10 11 12 13 14 15 16 17 18 19
000
FTUS43 KOAX 190742 AAA
TAFOFK
TAF AMD
KOFK 190742Z 1908/2006 10005KT P6SM BKN050
      TEMPO 1908/1912 5SM BR
     FM191600 13007KT P6SM SCT250
     FM191800 17014G21KT P6SM SKC
     FM200100 17013KT P6SM BKN250=

USA.gov is the U.S. government's official web portal to all federal, state and local government web resources and services.